Elnora, IN (47529)

5:36 PM EST en Marzo 03, 2015 (GMT -0500)
KINSANDB2 | Change Station
CLOSE
Current Station
Estación meteorológica personal
Location: Sandborn, IN
Altura: 479 ft
Estaciones meteorológicas cercanas
Aviso en curso: Winter Storm Watch

Alt 479 ft 38.90 °N, 87.18 °W | Updated 8 minutes ago

Nublado
Nublado
43.3 ° F
Sensación térmica 40 ° F
N
5.0
Viento Variable Viento desde Oeste
Gusts 9.0 mph

Hoy
Alta -- | Baja -- ° F
--% Posibilidad de precipitaciones
Ayer
Alta -- | Baja -- ° F
Precip. -- pul
7:18 AM 6:42 PM
Gibosa creciente, 97% visible
Presión 29.81 pul
Visibilidad 4.0 Millas
Nubes Nublado 400 ft
Vientos helados 40 ° F
Punto de rocío 42 ° F
Humedad 96%
Precipitaciones 0.11 pul
Espesor de la nieve No disponible.
UV 0 de una escala de 12
Polen .10 de una escala de 12
Calidad del aire No disponible.
Flu Activity No disponible.
METAR KDCY 032215Z AUTO 24008KT 4SM BR OVC004 06/04 A2981 RMK AO2 T00630044

More Conditions Fewer Conditions

Presión 29.81 pul
Visibilidad 4.0 Millas
Nubes Nublado 400 ft
Vientos helados 40 ° F
Punto de rocío 42 ° F
Humedad 96%
Precipitaciones 0.11 pul
Espesor de la nieve No disponible.
UV 0 de una escala de 12
Polen .10 de una escala de 12
Calidad del aire No disponible.
Flu Activity No disponible.
METAR KDCY 032215Z AUTO 24008KT 4SM BR OVC004 06/04 A2981 RMK AO2 T00630044

More Conditions Fewer Conditions

10-Day Weather Forecast

Almanac

Astronomía

Mar. 03, 2015 Salida Puesta
Hora real
Crepúsculo civil
Crepúsculo náutico
Crepúsculo astronómico
Luna
Horas de luz
Horas de luz
Tomorrow will be .
, % of the Moon is Illuminated

Extremos de hoy

Máximos del estado Bajos del estado

Community

WunderPhotos

Upload Photos

1,802,297 ¡fotos cargadas!

WunderBlogs® & News

Nearby

Calidad del aire

  Calidad del aire Índice AQ Contaminante
Not available.

Grosos de nieve

Estación Profundido Altura

Actividad de terremotos

Ciudad Distance Mag. Tiempo y dato
Magnitud mínima muestra es 2,5.

Temperaturas de aguas costeras

Lugar Temperatura

Estaciones meteorológicas cercanas

Winter Storm Watch
Statement as of 3:29 PM EST en Marzo 03, 2015

... Winter Storm Watch remains in effect from Wednesday afternoon
through Thursday morning...

A Winter Storm Watch remains in effect from Wednesday afternoon
through Thursday morning.

* Main impact: accumulating snow may make travel difficult
especially Wednesday afternoon into Thursday.

* Accumulations: around 6 inches of snow possible Wednesday into
Thursday.

* Timing: snow will develop Wednesday and continue into early
Thursday... with the heavier snow possible Wednesday afternoon
and Wednesday evening.

Precautionary/preparedness actions...

A Winter Storm Watch means there is a potential for significant
snow... sleet... or ice accumulations that may impact travel.
Continue to monitor the latest forecasts.